Time;durP1;ratioP1;P1;durP2;ratioP2;P2;SDS_P1;SDS_P2;PMS_P1;PMS_P2;Temp;Humidity;BMP_temperature;BMP_pressure;BME280_temperature;BME280_humidity;BME280_pressure;Samples;Min_cycle;Max_cycle;Signal;HPM_P1;HPM_P2
2022/12/17 15:01:43;;;;;;;;;43.00;36.25;;;;;-0.28;70.05;101647.25;4978338;28;45350;-93
2022/12/17 15:04:10;;;;;;;;;40.75;31.75;;;;;-0.29;70.32;101640.28;4954625;28;45390;-91
2022/12/17 15:10:22;;;;;;;;;36.00;33.25;;;;;-0.37;70.15;101626.09;4974249;28;45427;-92
2022/12/17 15:30:11;;;;;;;;;38.00;34.75;;;;;-1.74;69.89;101420.47;4853560;29;45469;-92
2022/12/17 15:32:47;;;;;;;;;42.00;29.50;;;;;-2.30;69.75;101336.81;4862984;29;45682;-91
2022/12/17 15:35:13;;;;;;;;;41.50;33.00;;;;;-1.07;69.79;101568.63;4869365;29;46131;-91
2022/12/17 15:40:39;;;;;;;;;33.75;29.00;;;;;-2.81;69.89;101283.63;4863593;29;45678;-90
2022/12/17 15:43:21;;;;;;;;;27.75;23.75;;;;;-1.18;70.32;101577.66;4836017;29;45511;-91
2022/12/17 15:45:48;;;;;;;;;29.75;29.00;;;;;-0.80;70.02;101634.66;4850438;29;45571;-90
2022/12/17 15:48:18;;;;;;;;;36.25;29.75;;;;;-0.84;70.62;101648.34;4852363;29;45785;-90
2022/12/17 15:50:44;;;;;;;;;34.75;32.50;;;;;-2.38;70.17;101377.91;4842195;29;45312;-89
2022/12/17 15:53:19;;;;;;;;;37.00;32.75;;;;;-2.89;70.28;101316.03;4905395;28;45010;-90
2022/12/17 15:56:32;;;;;;;;;35.25;31.75;;;;;-0.99;70.00;101652.00;4936722;28;46911;-90
2022/12/17 15:59:53;;;;;;;;;39.75;32.25;;;;;-0.98;69.91;101660.72;4952322;28;45161;-93
2022/12/17 17:18:42;;;;;;;;;27.00;24.25;;;;;-2.29;70.18;101533.75;3011295;23;45110;-93
2022/12/17 17:24:43;;;;;;;;;41.00;35.00;;;;;-1.62;70.06;101688.94;4988943;28;45411;-92
2022/12/17 17:27:09;;;;;;;;;39.25;34.00;;;;;-2.11;70.22;101590.72;4987558;28;45351;-92
2022/12/17 17:29:38;;;;;;;;;35.75;28.50;;;;;-1.70;70.10;101655.69;4989934;28;45469;-93
2022/12/17 17:32:09;;;;;;;;;35.75;33.00;;;;;-2.68;70.39;101490.47;4991631;28;45540;-94
2022/12/17 17:34:44;;;;;;;;;44.25;36.25;;;;;-1.72;70.46;101668.59;4989783;28;46341;-93
2022/12/17 17:40:32;;;;;;;;;39.25;36.75;;;;;-1.76;70.08;101674.47;4991995;28;44824;-95
2022/12/17 17:43:27;;;;;;;;;45.00;36.25;;;;;-3.42;70.34;101409.22;4992424;28;44911;-93
2022/12/17 17:45:54;;;;;;;;;42.75;37.50;;;;;-3.62;69.96;101381.50;4973421;28;47270;-92
2022/12/17 17:48:20;;;;;;;;;48.75;37.75;;;;;-3.19;70.52;101471.53;4993262;28;45430;-93
2022/12/17 17:51:22;;;;;;;;;46.25;38.75;;;;;-3.86;70.71;101344.97;4975543;28;45453;-93
2022/12/17 17:53:58;;;;;;;;;60.25;48.75;;;;;-3.73;70.67;101370.63;4884342;29;44797;-92
2022/12/17 17:56:34;;;;;;;;;53.25;45.25;;;;;-4.06;70.44;101294.88;4897144;29;46639;-94
2022/12/17 17:59:17;;;;;;;;;49.25;39.50;;;;;-4.02;70.63;101314.91;4890414;29;45441;-94
2022/12/17 18:01:48;;;;;;;;;40.50;31.75;;;;;-4.35;70.44;101250.38;4895921;29;45544;-93
2022/12/17 18:04:18;;;;;;;;;49.50;42.50;;;;;-3.18;70.27;101463.00;4900748;29;45245;-92
2022/12/17 18:06:52;;;;;;;;;59.25;48.50;;;;;-3.12;70.66;101452.94;4899976;29;46092;-93
2022/12/17 18:09:29;;;;;;;;;38.50;36.00;;;;;-1.96;70.55;101660.50;4914408;29;45481;-93
2022/12/17 18:13:53;;;;;;;;;63.75;47.00;;;;;-2.87;70.46;101526.59;4895980;29;45439;-93
2022/12/17 18:15:03;;;;;;;;;42.25;32.75;;;;;-2.78;70.83;101516.72;4918293;29;45689;-94
2022/12/17 18:17:50;;;;;;;;;39.75;34.50;;;;;-3.33;70.26;101421.72;4906557;29;46980;-93
2022/12/17 18:20:16;;;;;;;;;46.75;38.75;;;;;-3.48;70.40;101401.16;4900790;29;45337;-92
2022/12/17 18:22:51;;;;;;;;;46.75;41.75;;;;;-2.90;71.22;101497.97;4904435;29;44789;-92
2022/12/17 18:25:31;;;;;;;;;53.75;43.50;;;;;-2.05;71.36;101658.41;4900949;29;45471;-94
2022/12/17 18:27:59;;;;;;;;;65.75;50.25;;;;;-3.93;71.02;101349.81;4895860;29;47771;-91
2022/12/17 18:30:24;;;;;;;;;52.25;43.50;;;;;-2.57;71.10;101591.06;4984422;28;45236;-93
2022/12/17 18:32:50;;;;;;;;;48.25;38.25;;;;;-3.41;71.18;101465.31;5086748;22;45342;-92
2022/12/17 18:35:15;;;;;;;;;52.25;43.50;;;;;-3.52;70.70;101427.69;4995150;28;45719;-91
2022/12/17 18:37:41;;;;;;;;;51.75;38.25;;;;;-2.61;71.41;101589.13;4990223;28;48217;-92
2022/12/17 18:40:07;;;;;;;;;55.00;43.25;;;;;-3.23;71.07;101491.22;5001658;28;45212;-91
2022/12/17 18:45:21;;;;;;;;;55.75;46.25;;;;;-2.10;71.45;101675.41;4995561;28;45174;-92
2022/12/17 18:47:47;;;;;;;;;49.00;45.50;;;;;-2.73;71.40;101569.59;4974633;28;46501;-90
2022/12/17 18:50:15;;;;;;;;;42.00;37.25;;;;;-4.59;71.52;101258.63;5003910;28;45464;-91
2022/12/17 18:52:40;;;;;;;;;52.25;45.25;;;;;-3.34;71.44;101481.13;4969791;28;45298;-91
2022/12/17 18:55:09;;;;;;;;;56.25;47.25;;;;;-3.31;71.37;101484.78;4953864;28;45160;-94
2022/12/17 19:04:51;;;;;;;;;50.00;43.50;;;;;-2.27;71.75;101687.53;4973214;28;44767;-93
2022/12/17 19:07:17;;;;;;;;;49.50;45.00;;;;;-3.19;71.77;101533.63;4983605;28;45235;-93
2022/12/17 19:13:09;;;;;;;;;47.00;42.50;;;;;-3.06;71.68;101559.31;4975011;28;45396;-93
2022/12/17 19:16:27;;;;;;;;;55.75;47.50;;;;;-2.32;71.80;101692.47;4973532;28;44752;-93
2022/12/17 19:19:04;;;;;;;;;52.25;45.00;;;;;-3.17;71.60;101544.97;4982427;28;45456;-89
2022/12/17 19:25:31;;;;;;;;;61.00;48.75;;;;;-2.43;71.64;101701.41;4968433;28;45487;-90
2022/12/17 19:28:02;;;;;;;;;53.25;46.50;;;;;-2.45;71.91;101718.56;4971947;28;45429;-91
2022/12/17 19:30:32;;;;;;;;;70.75;48.00;;;;;-2.48;71.34;101692.50;4979376;28;45253;-90
2022/12/17 19:33:00;;;;;;;;;61.50;50.00;;;;;-3.79;71.09;101459.03;4980602;28;46857;-91
2022/12/17 19:35:26;;;;;;;;;56.50;47.25;;;;;-3.18;71.53;101561.28;4984992;28;45211;-89
2022/12/17 19:37:52;;;;;;;;;46.75;38.75;;;;;-3.92;71.32;101469.53;4997143;28;45193;-88
2022/12/17 19:40:17;;;;;;;;;58.25;46.00;;;;;-3.63;71.40;101508.94;4998650;28;45621;-89
2022/12/17 19:42:43;;;;;;;;;68.00;50.75;;;;;-2.81;71.49;101661.47;4979113;28;46461;-90
2022/12/17 19:45:09;;;;;;;;;54.75;45.50;;;;;-2.57;71.63;101698.09;4981900;28;45425;-89
2022/12/17 19:47:35;;;;;;;;;59.00;42.50;;;;;-3.68;71.64;101505.25;4979486;28;45409;-90
2022/12/17 19:50:00;;;;;;;;;64.00;51.50;;;;;-4.42;71.36;101398.00;4988807;28;45027;-89
2022/12/17 19:52:26;;;;;;;;;70.50;53.50;;;;;-4.50;71.21;101359.75;4999815;28;47263;-90
2022/12/17 19:54:51;;;;;;;;;62.50;47.50;;;;;-3.11;71.03;101615.13;4994609;28;45423;-88
2022/12/17 19:57:16;;;;;;;;;62.00;45.25;;;;;-3.04;71.37;101614.63;4976566;28;45390;-87
2022/12/17 19:59:42;;;;;;;;;68.00;47.25;;;;;-3.61;70.97;101528.03;4993516;28;45371;-89
2022/12/17 20:02:08;;;;;;;;;70.25;52.75;;;;;-3.69;71.25;101501.78;4974998;28;45576;-89
2022/12/17 20:04:33;;;;;;;;;50.75;43.75;;;;;-3.65;71.02;101546.75;4976941;28;45433;-89
2022/12/17 20:06:59;;;;;;;;;38.75;35.00;;;;;-3.20;71.97;101625.00;4979586;28;45317;-89
2022/12/17 20:09:25;;;;;;;;;31.25;28.00;;;;;-2.75;71.59;101707.50;4995406;28;45362;-89
2022/12/17 20:11:51;;;;;;;;;64.75;48.25;;;;;-2.75;71.74;101711.00;4983769;28;46276;-89
2022/12/17 20:14:22;;;;;;;;;56.75;47.75;;;;;-2.89;71.44;101693.84;4974842;28;45567;-89
2022/12/17 20:17:03;;;;;;;;;58.00;44.75;;;;;-2.78;71.27;101726.38;4962789;28;45338;-87
2022/12/17 20:19:31;;;;;;;;;43.75;37.00;;;;;-3.56;71.41;101586.03;4980146;28;45258;-89
2022/12/17 20:22:06;;;;;;;;;57.75;45.50;;;;;-3.79;71.00;101553.78;4974958;28;45492;-90
2022/12/17 20:24:32;;;;;;;;;53.25;44.00;;;;;-2.83;71.63;101727.81;4974941;28;45515;-89
2022/12/17 20:26:58;;;;;;;;;39.75;37.50;;;;;-2.87;71.63;101734.53;4981716;28;45573;-89
2022/12/17 20:29:24;;;;;;;;;48.25;36.50;;;;;-5.05;71.26;101362.78;4978978;28;45491;-89
2022/12/17 20:35:20;;;;;;;;;49.00;43.50;;;;;-3.29;71.00;101671.06;4930352;28;44799;-87
2022/12/17 20:37:45;;;;;;;;;46.00;39.00;;;;;-3.71;71.34;101603.28;4945875;28;45505;-89
2022/12/17 20:40:11;;;;;;;;;57.25;47.25;;;;;-3.37;70.93;101656.81;4958484;28;45509;-88
2022/12/17 20:42:36;;;;;;;;;64.50;48.50;;;;;-3.96;71.84;101560.63;4943670;28;48185;-89
2022/12/17 20:45:02;;;;;;;;;55.25;45.75;;;;;-3.51;70.96;101628.50;4939798;28;45511;-88
2022/12/17 20:47:47;;;;;;;;;56.75;45.00;;;;;-3.33;71.97;101669.09;4921918;28;45370;-89
2022/12/17 20:50:13;;;;;;;;;43.25;41.00;;;;;-4.28;71.54;101527.03;4927242;28;45504;-90
2022/12/17 20:52:47;;;;;;;;;55.25;46.50;;;;;-2.97;71.26;101763.31;4945989;28;46811;-88
2022/12/17 20:55:37;;;;;;;;;49.50;43.00;;;;;-4.53;71.24;101505.81;4955058;28;45607;-89
2022/12/17 20:58:36;;;;;;;;;58.00;48.00;;;;;-3.00;71.49;101757.97;4884373;29;45428;-89
2022/12/17 21:01:11;;;;;;;;;54.00;44.25;;;;;-4.91;71.33;101440.94;4927207;28;45031;-88
2022/12/17 21:03:37;;;;;;;;;55.75;45.00;;;;;-3.11;71.58;101747.06;4958928;28;46153;-90
2022/12/17 21:06:19;;;;;;;;;66.50;48.75;;;;;-4.03;71.62;101600.72;4945170;28;45355;-90
2022/12/17 21:08:49;;;;;;;;;52.75;43.75;;;;;-3.16;71.32;101743.31;4947061;28;45226;-90
2022/12/17 21:11:16;;;;;;;;;63.25;49.75;;;;;-3.93;71.98;101623.66;4941480;28;45342;-88
2022/12/17 21:13:42;;;;;;;;;52.75;42.00;;;;;-4.44;71.21;101554.50;4943908;28;47771;-88
2022/12/17 21:16:15;;;;;;;;;56.00;48.50;;;;;-4.22;71.12;101578.16;4943483;28;44744;-88
2022/12/17 21:18:41;;;;;;;;;57.25;45.25;;;;;-3.74;71.39;101655.69;4945841;28;45413;-90
2022/12/17 21:21:11;;;;;;;;;60.25;45.50;;;;;-3.66;71.20;101689.72;4946537;28;45164;-91
2022/12/17 21:23:37;;;;;;;;;58.00;48.50;;;;;-3.27;71.21;101759.94;4944915;28;46181;-90
2022/12/17 21:26:12;;;;;;;;;58.50;44.25;;;;;-5.22;70.87;101399.66;4943670;28;45381;-91
2022/12/17 21:28:40;;;;;;;;;50.25;43.50;;;;;-3.28;71.60;101745.22;4941747;28;45327;-91
2022/12/17 21:31:16;;;;;;;;;53.00;46.00;;;;;-3.94;71.52;101621.00;4943760;28;44810;-90
2022/12/17 21:33:42;;;;;;;;;43.25;40.50;;;;;-4.64;70.98;101510.38;4962547;28;46826;-91
2022/12/17 21:36:08;;;;;;;;;50.75;38.75;;;;;-5.56;70.81;101349.66;4993391;28;45255;-91
2022/12/17 21:38:33;;;;;;;;;45.75;39.50;;;;;-4.18;70.70;101579.19;5000830;28;45247;-91
2022/12/17 21:41:07;;;;;;;;;43.75;40.25;;;;;-5.25;70.80;101395.19;4986085;28;45668;-91
2022/12/17 21:43:35;;;;;;;;;45.75;40.00;;;;;-3.30;70.91;101757.19;4989717;28;47331;-92
2022/12/17 21:46:03;;;;;;;;;48.75;43.50;;;;;-4.27;70.96;101556.31;4987095;28;45367;-92
2022/12/17 21:48:28;;;;;;;;;44.50;39.75;;;;;-4.00;70.54;101600.00;5005201;28;45280;-90
2022/12/17 21:50:54;;;;;;;;;46.50;43.50;;;;;-5.47;70.75;101381.88;5003366;28;45434;-91
2022/12/17 21:53:21;;;;;;;;;50.75;39.25;;;;;-5.34;70.93;101402.41;4999897;28;46701;-90
2022/12/17 21:55:47;;;;;;;;;49.25;43.75;;;;;-4.75;71.17;101488.22;5002030;28;45927;-91
2022/12/17 21:58:14;;;;;;;;;51.50;41.50;;;;;-3.81;71.24;101657.06;5004347;28;44776;-91
2022/12/17 22:00:39;;;;;;;;;40.25;37.50;;;;;-3.42;70.66;101729.84;5008052;28;45229;-91
2022/12/17 22:03:05;;;;;;;;;50.25;43.00;;;;;-3.45;71.34;101711.56;5009401;28;47150;-91
2022/12/17 22:05:30;;;;;;;;;62.00;48.50;;;;;-4.31;70.82;101551.81;4988620;28;45474;-92
2022/12/17 22:07:59;;;;;;;;;45.00;43.50;;;;;-3.46;70.84;101709.81;4998451;28;45259;-92
2022/12/17 22:10:25;;;;;;;;;47.25;41.50;;;;;-3.49;70.96;101714.81;4999403;28;45524;-91
2022/12/17 22:15:37;;;;;;;;;55.75;44.00;;;;;-4.28;70.85;101563.19;4983811;28;45419;-91
2022/12/17 22:18:03;;;;;;;;;39.50;36.00;;;;;-3.51;70.78;101708.66;4983304;28;45255;-92
2022/12/17 22:20:28;;;;;;;;;48.00;39.25;;;;;-4.00;71.11;101606.03;4984125;28;45227;-91
2022/12/17 22:22:53;;;;;;;;;33.25;30.25;;;;;-5.02;71.30;101445.50;4984498;28;46731;-90
2022/12/17 22:25:19;;;;;;;;;58.75;41.50;;;;;-4.48;71.73;101558.59;4982406;28;45247;-92
2022/12/17 22:27:44;;;;;;;;;38.75;34.00;;;;;-4.93;71.17;101509.63;4982791;28;45467;-91
2022/12/17 22:33:01;;;;;;;;;50.00;38.50;;;;;-3.80;71.53;101688.94;4988211;28;45883;-91
2022/12/17 22:35:49;;;;;;;;;51.75;45.00;;;;;-5.05;71.71;101475.38;4982924;28;45451;-92
2022/12/17 22:38:14;;;;;;;;;49.50;43.75;;;;;-3.68;71.87;101712.00;4981389;28;45307;-92
2022/12/17 22:40:40;;;;;;;;;43.75;42.75;;;;;-3.78;71.45;101682.16;4998827;28;45477;-89
2022/12/17 22:45:58;;;;;;;;;46.25;39.00;;;;;-4.77;71.63;101531.13;4987997;28;45357;-91
2022/12/17 22:48:24;;;;;;;;;42.50;36.50;;;;;-3.94;71.53;101662.34;5007087;28;45257;-89
2022/12/17 22:50:49;;;;;;;;;54.00;42.75;;;;;-3.84;71.48;101684.41;4981679;28;45287;-89
2022/12/17 22:53:15;;;;;;;;;42.00;36.50;;;;;-4.76;71.44;101550.97;4981843;28;47164;-88
2022/12/17 22:55:40;;;;;;;;;42.00;30.75;;;;;-4.14;71.62;101644.00;4977313;28;45841;-88
2022/12/17 22:58:06;;;;;;;;;41.25;35.00;;;;;-3.92;71.75;101686.56;4983073;28;45447;-90
2022/12/17 23:00:34;;;;;;;;;38.75;37.00;;;;;-5.69;71.42;101390.03;5001482;28;45265;-90
2022/12/17 23:03:00;;;;;;;;;52.50;45.00;;;;;-6.20;71.37;101305.56;4966087;28;47364;-92
2022/12/17 23:05:26;;;;;;;;;51.75;39.50;;;;;-5.28;71.74;101456.00;4961797;28;45588;-88
2022/12/17 23:07:52;;;;;;;;;51.00;45.00;;;;;-4.02;71.80;101684.28;4959017;28;45314;-88
2022/12/17 23:10:18;;;;;;;;;47.00;40.50;;;;;-4.51;71.10;101579.06;4964362;28;45548;-91
2022/12/17 23:12:50;;;;;;;;;42.25;39.75;;;;;-5.18;71.46;101486.66;4963838;28;47334;-90
2022/12/17 23:15:36;;;;;;;;;47.00;39.50;;;;;-5.64;71.54;101398.94;4964087;28;45380;-91
2022/12/17 23:18:05;;;;;;;;;55.75;44.50;;;;;-6.13;71.62;101302.56;5000224;28;45285;-90
2022/12/17 23:20:33;;;;;;;;;41.75;38.00;;;;;-5.17;71.54;101470.41;5003396;28;45338;-90
2022/12/17 23:22:59;;;;;;;;;56.00;44.50;;;;;-5.24;71.69;101471.75;5004980;28;46922;-90
2022/12/17 23:25:25;;;;;;;;;60.75;45.25;;;;;-5.64;71.20;101422.13;5003860;28;45328;-92
2022/12/17 23:27:52;;;;;;;;;41.50;38.25;;;;;-4.93;72.01;101530.25;5002036;28;45272;-91
2022/12/17 23:30:19;;;;;;;;;51.00;39.00;;;;;-5.74;71.48;101397.50;5005556;28;45650;-92
2022/12/17 23:32:45;;;;;;;;;42.00;31.00;;;;;-4.83;71.44;101539.41;5004135;28;47022;-92
2022/12/17 23:35:12;;;;;;;;;53.50;43.50;;;;;-6.29;71.20;101298.19;5002720;28;45401;-92
2022/12/17 23:37:38;;;;;;;;;52.25;45.00;;;;;-4.23;71.86;101658.13;5001952;28;45455;-91
2022/12/17 23:40:12;;;;;;;;;60.25;47.00;;;;;-5.21;71.75;101487.41;4998446;28;45345;-89
2022/12/17 23:42:37;;;;;;;;;39.50;34.25;;;;;-5.72;71.56;101401.94;4981852;28;47339;-91
2022/12/17 23:45:04;;;;;;;;;54.25;44.00;;;;;-5.62;72.09;101429.13;4999410;28;45480;-90
2022/12/17 23:47:30;;;;;;;;;47.75;39.00;;;;;-5.31;71.58;101513.44;5001636;28;45424;-90
2022/12/17 23:49:55;;;;;;;;;45.00;36.50;;;;;-4.69;71.61;101591.78;4981918;28;45552;-90
2022/12/17 23:52:21;;;;;;;;;55.00;44.50;;;;;-5.35;72.32;101472.78;5001260;28;47272;-91
2022/12/17 23:54:47;;;;;;;;;46.25;37.25;;;;;-5.46;71.96;101476.44;4998508;28;45376;-88
2022/12/17 23:57:12;;;;;;;;;59.75;42.25;;;;;-5.97;71.87;101380.72;4980421;28;45243;-88
2022/12/17 23:59:37;;;;;;;;;48.25;41.50;;;;;-5.77;71.93;101407.63;4980164;28;45480;-88
